Time;durP1;ratioP1;P1;durP2;ratioP2;P2;SDS_P1;SDS_P2;PMS_P1;PMS_P2;Temp;Humidity;BMP_temperature;BMP_pressure;BME280_temperature;BME280_humidity;BME280_pressure;Samples;Min_cycle;Max_cycle;Signal;HPM_P1;HPM_P2
2021/06/30 00:01:51;;;;;;;;;;;;;;;26.71;45.54;100254.89;1708249;83;20153;-78
2021/06/30 00:04:17;;;;;;;;;;;;;;;26.73;45.60;100258.17;1708400;84;20182;-78
2021/06/30 00:06:43;;;;;;;;;;;;;;;26.73;45.65;100249.94;1708371;83;20137;-78
2021/06/30 00:09:09;;;;;;;;;;;;;;;26.75;45.70;100256.52;1708701;83;20162;-77
2021/06/30 00:11:35;;;;;;;;;;;;;;;26.74;45.77;100248.83;1708723;83;20265;-77
2021/06/30 00:14:02;;;;;;;;;;;;;;;26.75;45.85;100257.37;1708521;83;20140;-78
2021/06/30 00:16:32;;;;;;;;;;;;;;;26.72;45.92;100252.41;1709194;83;20223;-77
2021/06/30 00:18:57;;;;;;;;;;;;;;;26.71;46.00;100248.57;1708253;83;20176;-76
2021/06/30 00:21:23;;;;;;;;;;;;;;;26.67;46.09;100244.16;1708571;84;20085;-76
2021/06/30 00:23:50;;;;;;;;;;;;;;;26.64;46.13;100243.31;1708365;83;20141;-76
2021/06/30 00:26:16;;;;;;;;;;;;;;;26.62;46.22;100246.89;1707184;83;20152;-76
2021/06/30 00:28:42;;;;;;;;;;;;;;;26.59;46.30;100243.85;1669860;84;20807;-76
2021/06/30 00:31:08;;;;;;;;;;;;;;;26.55;46.37;100242.19;1665249;86;20192;-76
2021/06/30 00:33:34;;;;;;;;;;;;;;;26.52;46.45;100241.34;1689597;85;20183;-76
2021/06/30 00:36:02;;;;;;;;;;;;;;;26.49;46.48;100242.72;1669063;86;20159;-77
2021/06/30 00:38:28;;;;;;;;;;;;;;;26.48;46.58;100238.33;1665305;86;20206;-77
2021/06/30 00:40:54;;;;;;;;;;;;;;;26.46;46.70;100243.80;1690248;85;20226;-76
2021/06/30 00:43:20;;;;;;;;;;;;;;;26.46;46.77;100243.25;1660890;86;20152;-77
2021/06/30 00:45:48;;;;;;;;;;;;;;;26.44;46.80;100240.50;1651818;87;20196;-77
2021/06/30 00:48:14;;;;;;;;;;;;;;;26.44;46.74;100246.83;1666500;86;20173;-77
2021/06/30 00:50:41;;;;;;;;;;;;;;;26.40;46.80;100251.72;1691281;85;20148;-77
2021/06/30 00:53:07;;;;;;;;;;;;;;;26.36;46.88;100253.34;1662044;86;20143;-76
2021/06/30 00:55:33;;;;;;;;;;;;;;;26.31;46.96;100253.59;1670714;86;20119;-76
2021/06/30 00:58:01;;;;;;;;;;;;;;;26.29;46.93;100260.43;1666526;86;20125;-75
2021/06/30 01:00:27;;;;;;;;;;;;;;;26.27;46.93;100257.96;1691318;85;20429;-75
2021/06/30 01:02:53;;;;;;;;;;;;;;;26.23;46.85;100252.72;1670521;86;20177;-75
2021/06/30 01:05:19;;;;;;;;;;;;;;;26.23;46.79;100265.08;1666628;86;20184;-75
2021/06/30 01:07:46;;;;;;;;;;;;;;;26.20;46.73;100255.17;1691204;85;20431;-75
2021/06/30 01:10:12;;;;;;;;;;;;;;;26.16;46.83;100257.64;1670579;86;20179;-76
2021/06/30 01:12:39;;;;;;;;;;;;;;;26.16;46.89;100257.64;1666423;86;20189;-76
2021/06/30 01:15:07;;;;;;;;;;;;;;;26.17;46.84;100255.17;1666319;86;20169;-76
2021/06/30 01:17:33;;;;;;;;;;;;;;;26.19;46.79;100257.09;1662294;86;20145;-76
2021/06/30 01:20:00;;;;;;;;;;;;;;;26.21;46.57;100260.41;1670603;86;20388;-75
2021/06/30 01:22:26;;;;;;;;;;;;;;;26.23;46.39;100259.59;1666856;86;20200;-75
2021/06/30 01:24:53;;;;;;;;;;;;;;;26.24;46.21;100266.72;1661869;86;20212;-76
2021/06/30 01:27:23;;;;;;;;;;;;;;;26.25;46.06;100270.29;1670681;86;20163;-75
2021/06/30 01:29:49;;;;;;;;;;;;;;;26.24;45.97;100277.70;1666700;86;20466;-76
2021/06/30 01:32:15;;;;;;;;;;;;;;;26.23;45.89;100269.75;1691656;85;20225;-76
2021/06/30 01:34:41;;;;;;;;;;;;;;;26.21;45.79;100273.31;1662135;86;20165;-76
2021/06/30 01:37:07;;;;;;;;;;;;;;;26.18;45.60;100276.03;1670745;86;20189;-76
2021/06/30 01:39:35;;;;;;;;;;;;;;;26.14;45.60;100278.20;1666356;86;20438;-76
2021/06/30 01:42:01;;;;;;;;;;;;;;;26.12;45.67;100278.48;1661904;86;20223;-76
2021/06/30 01:44:27;;;;;;;;;;;;;;;26.11;45.61;100282.30;1670435;86;20136;-76
2021/06/30 01:46:53;;;;;;;;;;;;;;;26.09;45.65;100284.48;1666551;86;20536;-76
2021/06/30 01:49:20;;;;;;;;;;;;;;;26.08;45.61;100285.59;1680279;85;20260;-76
2021/06/30 01:51:47;;;;;;;;;;;;;;;26.05;45.63;100286.11;1679900;85;20098;-76
2021/06/30 01:54:15;;;;;;;;;;;;;;;26.00;45.60;100286.08;1680154;85;20181;-76
2021/06/30 01:56:42;;;;;;;;;;;;;;;25.96;45.66;100286.33;1679968;85;20143;-77
2021/06/30 01:59:13;;;;;;;;;;;;;;;25.92;45.76;100293.42;1680091;85;20146;-76
2021/06/30 02:01:41;;;;;;;;;;;;;;;25.88;45.88;100296.41;1679931;85;20174;-78
2021/06/30 02:04:07;;;;;;;;;;;;;;;25.87;45.97;100294.77;1679389;85;20205;-77
2021/06/30 02:06:41;;;;;;;;;;;;;;;25.87;46.03;100293.39;1679169;85;20180;-77
2021/06/30 02:09:08;;;;;;;;;;;;;;;25.87;46.13;100292.02;1679342;85;20215;-76
2021/06/30 02:11:36;;;;;;;;;;;;;;;25.88;46.22;100295.87;1679008;85;20244;-76
2021/06/30 02:14:04;;;;;;;;;;;;;;;25.88;46.15;100293.67;1679393;85;20203;-76
2021/06/30 02:16:33;;;;;;;;;;;;;;;25.87;46.05;100304.38;1678766;85;20902;-76
2021/06/30 02:19:04;;;;;;;;;;;;;;;25.85;45.93;100311.50;1679372;85;20468;-77
2021/06/30 02:21:28;;;;;;;;;;;;;;;25.84;45.89;100309.00;1678682;84;20213;-77
2021/06/30 02:23:54;;;;;;;;;;;;;;;25.83;45.88;100314.22;1678982;85;20180;-77
2021/06/30 02:26:20;;;;;;;;;;;;;;;25.82;46.00;100312.02;1679104;85;20533;-77
2021/06/30 02:28:47;;;;;;;;;;;;;;;25.84;45.89;100311.75;1678895;85;20212;-77
2021/06/30 02:31:13;;;;;;;;;;;;;;;25.84;45.92;100311.75;1679044;85;20820;-77
2021/06/30 02:33:39;;;;;;;;;;;;;;;25.83;46.00;100314.22;1678974;85;20175;-77
2021/06/30 02:36:05;;;;;;;;;;;;;;;25.78;45.96;100319.94;1679129;85;20196;-77
2021/06/30 02:38:31;;;;;;;;;;;;;;;25.74;45.97;100317.95;1678991;85;20181;-77
2021/06/30 02:40:57;;;;;;;;;;;;;;;25.69;45.96;100319.28;1679138;85;20180;-77
2021/06/30 02:43:23;;;;;;;;;;;;;;;25.63;46.18;100321.16;1678853;85;20223;-77
2021/06/30 02:45:51;;;;;;;;;;;;;;;25.61;46.27;100321.95;1678591;85;20177;-77
2021/06/30 02:48:17;;;;;;;;;;;;;;;25.60;46.41;100318.94;1691162;85;20146;-77
2021/06/30 02:50:44;;;;;;;;;;;;;;;25.62;46.51;100315.41;1690005;85;20460;-77
2021/06/30 02:53:10;;;;;;;;;;;;;;;25.65;46.51;100323.09;1689607;85;20202;-77
2021/06/30 02:55:36;;;;;;;;;;;;;;;25.67;46.59;100331.08;1688946;85;20505;-76
2021/06/30 02:58:02;;;;;;;;;;;;;;;25.67;46.72;100327.79;1691505;85;20165;-78
2021/06/30 03:00:29;;;;;;;;;;;;;;;25.71;46.87;100333.04;1691222;85;20168;-77
2021/06/30 03:02:55;;;;;;;;;;;;;;;25.74;46.89;100334.41;1690076;85;20215;-76
2021/06/30 03:05:21;;;;;;;;;;;;;;;25.76;46.81;100333.11;1689717;85;20217;-77
2021/06/30 03:07:50;;;;;;;;;;;;;;;25.79;46.88;100331.73;1689890;85;20264;-77
2021/06/30 03:10:15;;;;;;;;;;;;;;;25.81;46.87;100335.06;1690563;84;20148;-77
2021/06/30 03:12:43;;;;;;;;;;;;;;;25.83;46.81;100335.62;1690556;85;20396;-77
2021/06/30 03:15:10;;;;;;;;;;;;;;;25.85;46.65;100328.52;1689527;85;20225;-76
2021/06/30 03:17:37;;;;;;;;;;;;;;;25.85;46.44;100329.89;1689111;85;20229;-77
2021/06/30 03:20:05;;;;;;;;;;;;;;;25.84;46.39;100333.15;1689734;85;20175;-77
2021/06/30 03:22:31;;;;;;;;;;;;;;;25.86;46.38;100332.91;1689366;85;20182;-77
2021/06/30 03:24:58;;;;;;;;;;;;;;;25.86;46.32;100328.24;1690338;85;20182;-76
2021/06/30 03:27:25;;;;;;;;;;;;;;;25.88;46.22;100326.59;1689866;85;20573;-76
2021/06/30 03:29:51;;;;;;;;;;;;;;;25.90;45.95;100327.18;1689720;85;20202;-77
2021/06/30 03:32:17;;;;;;;;;;;;;;;25.91;45.90;100329.66;1689973;85;20198;-76
2021/06/30 03:34:43;;;;;;;;;;;;;;;25.91;46.01;100326.91;1689705;85;20787;-76
2021/06/30 03:37:08;;;;;;;;;;;;;;;25.93;45.95;100334.32;1689282;85;20181;-76
2021/06/30 03:39:36;;;;;;;;;;;;;;;25.94;45.72;100338.74;1688762;85;20213;-77
2021/06/30 03:42:03;;;;;;;;;;;;;;;25.95;45.58;100335.45;1649960;87;20156;-77
2021/06/30 03:44:29;;;;;;;;;;;;;;;25.98;45.42;100331.64;1677988;85;20189;-76
2021/06/30 03:46:55;;;;;;;;;;;;;;;26.00;45.38;100333.56;1679348;85;20189;-77
2021/06/30 03:49:21;;;;;;;;;;;;;;;26.02;45.32;100332.73;1690115;85;20195;-77
2021/06/30 03:51:47;;;;;;;;;;;;;;;26.06;45.51;100334.42;1690576;85;20229;-77
2021/06/30 03:54:15;;;;;;;;;;;;;;;26.07;45.57;100340.18;1689596;85;20140;-77
2021/06/30 03:56:40;;;;;;;;;;;;;;;26.09;45.42;100338.02;1691082;85;20174;-77
2021/06/30 03:59:06;;;;;;;;;;;;;;;26.11;45.54;100334.45;1690137;85;20166;-77
2021/06/30 04:01:34;;;;;;;;;;;;;;;26.14;45.54;100340.80;1668233;86;20179;-77
2021/06/30 04:04:01;;;;;;;;;;;;;;;26.16;45.96;100342.75;1664286;86;20204;-76
2021/06/30 04:06:28;;;;;;;;;;;;;;;26.21;46.19;100338.66;1655388;85;20171;-76
2021/06/30 04:08:55;;;;;;;;;;;;;;;26.28;46.26;100337.86;1653502;85;20242;-75
2021/06/30 04:11:21;;;;;;;;;;;;;;;26.35;46.18;100333.53;1678258;85;20492;-76
2021/06/30 04:13:47;;;;;;;;;;;;;;;26.47;46.07;100337.45;1680016;85;20250;-76
2021/06/30 04:16:12;;;;;;;;;;;;;;;26.61;45.71;100344.12;1667395;85;20273;-76
2021/06/30 04:18:39;;;;;;;;;;;;;;;26.67;45.44;100333.45;1650435;84;20143;-77
2021/06/30 04:21:05;;;;;;;;;;;;;;;26.75;45.31;100330.20;1666443;86;20450;-75
2021/06/30 04:23:34;;;;;;;;;;;;;;;26.81;45.31;100337.36;1666370;86;20188;-76
2021/06/30 04:26:00;;;;;;;;;;;;;;;26.86;45.45;100334.35;1671810;85;20154;-76
2021/06/30 04:28:26;;;;;;;;;;;;;;;26.94;45.33;100333.84;1689112;85;20104;-75
2021/06/30 04:30:52;;;;;;;;;;;;;;;27.02;44.97;100328.61;1663550;86;20200;-76
2021/06/30 04:33:18;;;;;;;;;;;;;;;27.10;44.62;100327.30;1661815;86;20264;-77
2021/06/30 04:35:44;;;;;;;;;;;;;;;27.15;44.31;100331.44;1664664;86;20295;-77
2021/06/30 04:38:09;;;;;;;;;;;;;;;27.19;44.37;100333.92;1688193;85;20217;-77
2021/06/30 04:40:35;;;;;;;;;;;;;;;27.24;44.36;100334.48;1688426;85;20181;-75
2021/06/30 04:43:01;;;;;;;;;;;;;;;27.30;44.27;100335.61;1668181;84;20181;-76
2021/06/30 04:45:27;;;;;;;;;;;;;;;27.38;44.48;100332.03;1662846;86;20187;-76
2021/06/30 04:47:55;;;;;;;;;;;;;;;27.45;44.21;100328.48;1683758;85;20254;-76
2021/06/30 04:50:21;;;;;;;;;;;;;;;27.55;43.93;100329.30;1675235;85;20291;-76
2021/06/30 04:52:48;;;;;;;;;;;;;;;27.66;43.75;100327.41;1675091;85;20235;-76
2021/06/30 04:55:14;;;;;;;;;;;;;;;27.77;43.38;100333.20;1662081;86;20526;-76
2021/06/30 04:57:40;;;;;;;;;;;;;;;27.87;43.20;100335.68;1660647;86;20395;-76
2021/06/30 05:00:08;;;;;;;;;;;;;;;27.97;42.62;100334.28;1660802;86;20209;-77
2021/06/30 05:02:34;;;;;;;;;;;;;;;28.06;42.42;100335.37;1660617;86;20228;-76
2021/06/30 05:05:00;;;;;;;;;;;;;;;28.14;42.51;100338.95;1677918;84;20283;-76
2021/06/30 05:07:26;;;;;;;;;;;;;;;28.24;42.37;100334.80;1685624;85;20245;-76
2021/06/30 05:09:53;;;;;;;;;;;;;;;28.30;41.82;100336.46;1644501;86;20435;-75
2021/06/30 05:12:19;;;;;;;;;;;;;;;28.37;41.69;100339.50;1646806;85;20217;-75
2021/06/30 05:14:47;;;;;;;;;;;;;;;28.43;41.46;100334.23;1664711;86;20325;-74
2021/06/30 05:17:13;;;;;;;;;;;;;;;28.49;41.53;100336.72;1662283;86;20456;-76
2021/06/30 05:19:38;;;;;;;;;;;;;;;28.55;41.57;100333.38;1664229;84;20241;-77
2021/06/30 05:22:04;;;;;;;;;;;;;;;28.60;41.55;100336.67;1659507;85;20207;-77
2021/06/30 05:24:31;;;;;;;;;;;;;;;28.65;41.28;100334.72;1672735;85;20189;-76
2021/06/30 05:26:57;;;;;;;;;;;;;;;28.70;41.43;100338.00;1672616;84;20209;-76
2021/06/30 05:29:23;;;;;;;;;;;;;;;28.73;41.35;100332.77;1667586;84;20202;-73
2021/06/30 05:31:49;;;;;;;;;;;;;;;28.77;41.40;100335.23;1672682;84;20202;-75
2021/06/30 05:34:15;;;;;;;;;;;;;;;28.83;40.91;100334.09;1677519;84;20208;-75
2021/06/30 05:36:48;;;;;;;;;;;;;;;28.89;40.92;100342.33;1678297;84;20159;-75
2021/06/30 05:39:09;;;;;;;;;;;;;;;28.92;40.68;100343.16;1674252;85;20449;-75
2021/06/30 05:41:37;;;;;;;;;;;;;;;28.96;40.45;100338.76;1673738;84;20227;-75
2021/06/30 05:44:03;;;;;;;;;;;;;;;29.00;40.53;100336.53;1674406;84;20153;-75
2021/06/30 05:46:30;;;;;;;;;;;;;;;29.04;40.64;100337.62;1659732;85;20205;-75
2021/06/30 05:48:56;;;;;;;;;;;;;;;29.09;40.43;100336.77;1660599;85;20567;-76
2021/06/30 05:51:22;;;;;;;;;;;;;;;29.14;40.62;100345.00;1657597;86;20224;-76
2021/06/30 05:53:47;;;;;;;;;;;;;;;29.21;40.11;100344.15;1682900;83;20266;-74
2021/06/30 05:56:14;;;;;;;;;;;;;;;29.31;39.90;100344.08;1676558;84;20167;-74
2021/06/30 05:58:44;;;;;;;;;;;;;;;29.38;39.98;100348.45;1653937;85;20144;-75
2021/06/30 06:01:11;;;;;;;;;;;;;;;29.48;39.75;100345.64;1677007;84;20155;-75
2021/06/30 06:03:37;;;;;;;;;;;;;;;29.57;39.42;100348.09;1674829;84;20611;-76
2021/06/30 06:06:04;;;;;;;;;;;;;;;29.68;38.68;100349.65;1676168;84;20154;-76
2021/06/30 06:08:31;;;;;;;;;;;;;;;29.78;38.33;100344.59;1675900;84;20157;-76
2021/06/30 06:10:59;;;;;;;;;;;;;;;29.90;37.78;100353.89;1679505;84;20192;-76
2021/06/30 06:13:26;;;;;;;;;;;;;;;30.03;37.81;100358.75;1652581;85;20138;-77
2021/06/30 06:15:53;;;;;;;;;;;;;;;30.18;37.21;100358.63;1678929;84;20155;-76
2021/06/30 06:18:29;;;;;;;;;;;;;;;30.32;36.78;100358.20;1683087;84;20183;-76
2021/06/30 06:20:52;;;;;;;;;;;;;;;30.49;36.29;100361.91;1674505;84;20181;-76
2021/06/30 06:23:18;;;;;;;;;;;;;;;30.66;36.13;100355.92;1675886;85;20238;-77
2021/06/30 06:25:44;;;;;;;;;;;;;;;30.83;36.02;100349.92;1671551;84;20231;-75
2021/06/30 06:28:10;;;;;;;;;;;;;;;31.01;35.77;100353.84;1672212;85;20527;-76
2021/06/30 06:30:39;;;;;;;;;;;;;;;31.20;35.68;100357.44;1672871;84;20188;-76
2021/06/30 06:33:05;;;;;;;;;;;;;;;31.39;34.93;100349.77;1672346;84;20171;-77
2021/06/30 06:35:31;;;;;;;;;;;;;;;31.55;34.71;100353.92;1680154;83;20392;-76
2021/06/30 06:37:57;;;;;;;;;;;;;;;31.70;33.97;100353.67;1659843;84;20703;-77
2021/06/30 06:40:23;;;;;;;;;;;;;;;31.83;33.83;100359.86;1670499;84;20223;-76
2021/06/30 06:42:51;;;;;;;;;;;;;;;31.98;33.90;100355.20;1646178;85;20481;-76
2021/06/30 06:45:17;;;;;;;;;;;;;;;32.12;33.90;100356.06;1670878;85;20571;-76
2021/06/30 06:47:43;;;;;;;;;;;;;;;32.30;33.84;100360.71;1671553;85;20251;-76
2021/06/30 06:50:10;;;;;;;;;;;;;;;32.50;33.57;100360.09;1674625;85;20188;-76
2021/06/30 06:52:37;;;;;;;;;;;;;;;32.70;33.25;100361.05;1675383;85;20210;-76
2021/06/30 06:55:09;;;;;;;;;;;;;;;32.90;32.94;100359.83;1675077;84;20138;-77
2021/06/30 06:57:32;;;;;;;;;;;;;;;33.11;32.42;100360.22;1680282;84;20183;-77
2021/06/30 07:00:04;;;;;;;;;;;;;;;33.27;32.32;100360.72;1675292;84;20583;-76
2021/06/30 07:02:30;;;;;;;;;;;;;;;33.42;32.31;100365.09;1672691;84;20196;-77
2021/06/30 07:04:58;;;;;;;;;;;;;;;33.55;32.01;100364.25;1669532;84;20133;-77
2021/06/30 07:07:24;;;;;;;;;;;;;;;33.72;31.64;100361.62;1649184;84;20208;-76
2021/06/30 07:09:50;;;;;;;;;;;;;;;33.89;31.06;100366.48;1675116;84;20163;-76
2021/06/30 07:12:16;;;;;;;;;;;;;;;34.05;30.57;100368.32;1672914;84;20171;-75
2021/06/30 07:14:45;;;;;;;;;;;;;;;34.22;30.44;100367.03;1674615;84;20158;-75
2021/06/30 07:17:13;;;;;;;;;;;;;;;34.39;30.44;100371.06;1675546;84;20152;-76
2021/06/30 07:19:41;;;;;;;;;;;;;;;34.52;30.34;100373.77;1675801;84;20156;-75
2021/06/30 07:22:07;;;;;;;;;;;;;;;34.61;30.20;100365.42;1681466;84;20184;-76
2021/06/30 07:24:33;;;;;;;;;;;;;;;34.70;30.21;100363.53;1649585;85;20212;-76
2021/06/30 07:27:01;;;;;;;;;;;;;;;34.79;29.43;100366.31;1671987;84;20737;-76
2021/06/30 07:29:27;;;;;;;;;;;;;;;34.87;29.10;100366.91;1655769;85;20165;-76
2021/06/30 07:31:55;;;;;;;;;;;;;;;34.96;29.01;100368.33;1682576;84;20279;-76
2021/06/30 07:34:21;;;;;;;;;;;;;;;35.03;29.11;100360.36;1680958;84;20174;-76
2021/06/30 07:36:48;;;;;;;;;;;;;;;35.08;28.70;100356.03;1679135;84;20177;-75
2021/06/30 07:39:18;;;;;;;;;;;;;;;35.11;28.30;100353.16;1681600;84;20242;-76
2021/06/30 07:41:45;;;;;;;;;;;;;;;35.11;28.21;100348.40;1684276;84;20148;-77
2021/06/30 07:44:14;;;;;;;;;;;;;;;35.09;28.11;100356.27;1664328;84;20175;-77
2021/06/30 07:46:39;;;;;;;;;;;;;;;35.08;27.86;100357.42;1655320;85;20161;-77
2021/06/30 07:49:06;;;;;;;;;;;;;;;35.05;28.16;100356.67;1674660;84;20193;-77
2021/06/30 07:51:32;;;;;;;;;;;;;;;35.03;28.32;100349.23;1675907;84;20143;-77
2021/06/30 07:54:01;;;;;;;;;;;;;;;35.01;28.64;100354.28;1676052;84;20572;-78
2021/06/30 07:56:39;;;;;;;;;;;;;;;35.03;28.39;100356.19;1675737;84;20164;-77
2021/06/30 07:59:11;;;;;;;;;;;;;;;35.06;28.62;100354.12;1673937;84;20204;-77
2021/06/30 08:01:38;;;;;;;;;;;;;;;35.08;28.30;100362.41;1672563;85;20252;-78
2021/06/30 08:04:05;;;;;;;;;;;;;;;35.07;28.54;100358.58;1679164;85;20141;-79
2021/06/30 08:06:32;;;;;;;;;;;;;;;35.04;28.56;100353.64;1682531;83;20143;-78
2021/06/30 08:08:58;;;;;;;;;;;;;;;35.02;28.74;100358.70;1661805;85;20176;-78
2021/06/30 08:11:27;;;;;;;;;;;;;;;35.00;28.28;100356.83;1662902;85;20213;-78
2021/06/30 08:13:53;;;;;;;;;;;;;;;34.96;28.59;100357.20;1653455;85;20193;-78
2021/06/30 08:16:20;;;;;;;;;;;;;;;34.97;28.75;100354.11;1674656;83;20561;-78
2021/06/30 08:18:48;;;;;;;;;;;;;;;34.99;28.92;100356.02;1681768;84;20499;-78
2021/06/30 08:21:14;;;;;;;;;;;;;;;35.00;28.97;100354.05;1682686;84;20176;-79
2021/06/30 08:23:40;;;;;;;;;;;;;;;35.02;29.14;100353.13;1687693;84;20158;-78
2021/06/30 08:26:09;;;;;;;;;;;;;;;35.03;29.11;100350.05;1686503;84;20177;-78
2021/06/30 08:28:35;;;;;;;;;;;;;;;35.05;28.98;100348.31;1678258;84;20159;-76
2021/06/30 08:31:02;;;;;;;;;;;;;;;35.05;28.95;100351.92;1679025;84;20183;-78
2021/06/30 08:33:29;;;;;;;;;;;;;;;35.04;29.21;100350.86;1680027;84;20188;-79
2021/06/30 08:35:55;;;;;;;;;;;;;;;35.00;29.10;100357.64;1685020;83;20171;-78
2021/06/30 08:38:22;;;;;;;;;;;;;;;34.96;28.99;100351.08;1672987;84;20162;-78
2021/06/30 08:40:50;;;;;;;;;;;;;;;34.96;29.16;100351.63;1660801;86;20191;-77
2021/06/30 08:43:16;;;;;;;;;;;;;;;34.95;29.15;100353.59;1660151;83;20672;-78
2021/06/30 08:45:42;;;;;;;;;;;;;;;34.92;29.02;100350.63;1682228;84;20171;-78
2021/06/30 08:48:08;;;;;;;;;;;;;;;34.86;29.22;100347.77;1684859;84;20234;-78
2021/06/30 08:50:39;;;;;;;;;;;;;;;34.83;29.47;100354.20;1673652;84;20215;-78
2021/06/30 08:53:13;;;;;;;;;;;;;;;34.77;29.31;100361.08;1679540;84;20153;-78
2021/06/30 08:55:44;;;;;;;;;;;;;;;34.70;29.41;100362.68;1676125;84;20544;-77
2021/06/30 08:58:11;;;;;;;;;;;;;;;34.63;29.63;100357.59;1683136;83;20260;-77
2021/06/30 09:00:37;;;;;;;;;;;;;;;34.54;29.74;100359.53;1673267;84;20095;-78
2021/06/30 09:03:03;;;;;;;;;;;;;;;34.46;29.91;100359.73;1677578;84;20184;-77
2021/06/30 09:07:59;;;;;;;;;;;;;;;34.32;30.21;100358.98;1652670;85;20173;-77
2021/06/30 09:10:30;;;;;;;;;;;;;;;34.24;30.37;100354.20;1683079;83;20162;-77
2021/06/30 09:12:57;;;;;;;;;;;;;;;34.15;30.45;100349.98;1685132;83;20170;-77
2021/06/30 09:15:32;;;;;;;;;;;;;;;34.27;30.53;100346.05;1664360;85;20188;-76
2021/06/30 09:18:14;;;;;;;;;;;;;;;34.08;30.83;100344.89;1679447;84;20182;-76
2021/06/30 09:20:40;;;;;;;;;;;;;;;33.96;30.85;100347.42;1675883;84;20210;-76
2021/06/30 09:23:06;;;;;;;;;;;;;;;33.81;31.18;100347.79;1679211;84;20218;-76
2021/06/30 09:25:35;;;;;;;;;;;;;;;33.71;31.54;100345.27;1682054;84;20149;-76
2021/06/30 09:28:16;;;;;;;;;;;;;;;33.67;31.86;100349.24;1653188;85;20259;-77
2021/06/30 09:30:54;;;;;;;;;;;;;;;33.65;31.82;100340.96;1675667;84;20164;-76
2021/06/30 09:33:20;;;;;;;;;;;;;;;33.62;31.83;100335.48;1679417;84;20200;-76
2021/06/30 09:35:46;;;;;;;;;;;;;;;33.56;31.81;100330.60;1655371;84;20185;-76
2021/06/30 09:38:32;;;;;;;;;;;;;;;33.48;32.18;100333.34;1689305;84;20186;-77
2021/06/30 09:40:59;;;;;;;;;;;;;;;33.37;32.23;100327.73;1651373;84;20188;-76
2021/06/30 09:43:31;;;;;;;;;;;;;;;33.28;32.61;100331.24;1682590;84;20181;-76
2021/06/30 09:45:58;;;;;;;;;;;;;;;33.18;32.69;100335.65;1678871;84;20539;-76
2021/06/30 09:48:29;;;;;;;;;;;;;;;33.12;33.16;100329.16;1683864;84;20194;-76
2021/06/30 09:50:55;;;;;;;;;;;;;;;33.08;33.42;100329.77;1676392;84;20211;-76
2021/06/30 09:53:34;;;;;;;;;;;;;;;33.03;33.40;100327.68;1682670;83;20436;-76
2021/06/30 09:56:14;;;;;;;;;;;;;;;32.97;33.75;100326.13;1680508;83;20743;-76
2021/06/30 09:58:40;;;;;;;;;;;;;;;32.90;33.78;100322.94;1665696;84;20214;-76
2021/06/30 10:01:19;;;;;;;;;;;;;;;32.87;34.02;100327.72;1667425;84;20509;-76
2021/06/30 10:03:47;;;;;;;;;;;;;;;32.81;34.19;100329.22;1647246;84;20230;-76
2021/06/30 10:06:45;;;;;;;;;;;;;;;;;;;;;
2021/06/30 10:09:13;;;;;;;;;;;;;;;32.69;34.39;100321.16;1649501;84;20157;-76
2021/06/30 10:11:40;;;;;;;;;;;;;;;32.66;34.74;100318.45;1679096;84;20199;-75
2021/06/30 10:14:06;;;;;;;;;;;;;;;32.64;34.66;100303.23;1656869;85;20345;-76
2021/06/30 10:16:32;;;;;;;;;;;;;;;32.60;34.73;100308.58;1680765;84;20388;-76
2021/06/30 10:18:59;;;;;;;;;;;;;;;32.57;34.61;100307.26;1679381;84;20182;-76
2021/06/30 10:21:30;;;;;;;;;;;;;;;32.51;34.69;100299.34;1673755;84;20284;-77
2021/06/30 10:23:56;;;;;;;;;;;;;;;32.46;35.23;100296.11;1679063;84;20161;-77
2021/06/30 10:26:28;;;;;;;;;;;;;;;32.45;35.52;100292.27;1678453;84;20827;-77
2021/06/30 10:28:56;;;;;;;;;;;;;;;32.45;35.54;100295.86;1674598;84;20104;-77
2021/06/30 10:31:26;;;;;;;;;;;;;;;32.41;35.61;100299.55;1649034;84;20185;-77
2021/06/30 10:34:03;;;;;;;;;;;;;;;32.38;35.33;100289.89;1652245;84;20184;-77
2021/06/30 10:36:54;;;;;;;;;;;;;;;32.37;35.32;100287.40;1678245;84;20229;-77
2021/06/30 10:39:23;;;;;;;;;;;;;;;32.36;35.44;100289.36;1680725;84;20150;-77
2021/06/30 10:41:53;;;;;;;;;;;;;;;32.32;35.48;100286.37;1648881;84;20192;-77
2021/06/30 10:44:26;;;;;;;;;;;;;;;32.29;35.47;100280.61;1674145;84;20176;-78
2021/06/30 10:46:56;;;;;;;;;;;;;;;32.28;35.43;100282.56;1665500;85;20147;-77
2021/06/30 10:49:32;;;;;;;;;;;;;;;32.28;35.79;100282.56;1648308;85;20115;-77
2021/06/30 10:52:12;;;;;;;;;;;;;;;32.29;35.35;100281.46;1656745;84;20180;-76
2021/06/30 10:54:41;;;;;;;;;;;;;;;32.28;35.13;100281.75;1669031;84;20103;-76
2021/06/30 10:57:29;;;;;;;;;;;;;;;32.27;35.13;100283.70;1661559;84;20185;-77
2021/06/30 11:00:03;;;;;;;;;;;;;;;32.26;35.45;100270.16;1653399;85;20153;-76
2021/06/30 11:02:33;;;;;;;;;;;;;;;32.25;35.70;100275.42;1655034;86;20138;-76
2021/06/30 11:05:15;;;;;;;;;;;;;;;32.23;35.51;100283.23;1671446;84;20599;-76
2021/06/30 11:07:42;;;;;;;;;;;;;;;32.18;35.20;100280.00;1672347;84;20874;-76
2021/06/30 11:10:21;;;;;;;;;;;;;;;32.19;35.22;100287.19;1671113;85;20210;-77
2021/06/30 11:12:54;;;;;;;;;;;;;;;32.17;35.03;100284.48;1671347;84;20156;-76
2021/06/30 11:15:39;;;;;;;;;;;;;;;32.14;34.66;100289.23;1670969;84;20206;-76
2021/06/30 11:18:15;;;;;;;;;;;;;;;32.08;34.63;100292.67;1669983;84;20201;-76
2021/06/30 11:20:48;;;;;;;;;;;;;;;32.03;34.64;100284.46;1659507;84;20161;-77
2021/06/30 11:23:23;;;;;;;;;;;;;;;31.99;34.58;100289.78;1672754;85;20215;-76
2021/06/30 11:25:51;;;;;;;;;;;;;;;31.95;34.86;100273.52;1676624;84;20192;-76
2021/06/30 11:28:31;;;;;;;;;;;;;;;31.94;35.14;100273.27;1675747;84;20184;-78
2021/06/30 11:30:58;;;;;;;;;;;;;;;31.94;35.04;100270.49;1682745;83;20167;-77
2021/06/30 11:33:24;;;;;;;;;;;;;;;31.96;34.80;100272.95;1674776;84;20148;-77
2021/06/30 11:35:53;;;;;;;;;;;;;;;31.94;34.80;100271.05;1673566;84;20161;-76
2021/06/30 11:38:22;;;;;;;;;;;;;;;31.91;34.68;100278.58;1646856;85;20149;-77
2021/06/30 11:41:01;;;;;;;;;;;;;;;31.88;34.52;100279.19;1673288;84;20139;-75
2021/06/30 11:43:32;;;;;;;;;;;;;;;31.86;34.66;100270.38;1676131;84;20477;-76
2021/06/30 11:45:56;;;;;;;;;;;;;;;31.78;34.73;100276.82;1672176;84;20604;-77
2021/06/30 11:48:22;;;;;;;;;;;;;;;31.75;34.88;100269.14;1672257;84;20204;-77
2021/06/30 11:50:53;;;;;;;;;;;;;;;31.74;34.93;100266.09;1671457;84;20430;-77
2021/06/30 11:53:34;;;;;;;;;;;;;;;31.74;35.07;100263.89;1671739;84;20196;-76
2021/06/30 11:56:03;;;;;;;;;;;;;;;31.72;34.97;100266.97;1672646;84;20247;-77
2021/06/30 11:58:52;;;;;;;;;;;;;;;31.73;34.94;100264.45;1679284;84;20222;-76
2021/06/30 12:01:32;;;;;;;;;;;;;;;31.74;34.84;100260.55;1670333;84;20171;-78
2021/06/30 12:04:13;;;;;;;;;;;;;;;31.73;34.51;100250.61;1674451;84;20147;-78
2021/06/30 12:06:39;;;;;;;;;;;;;;;31.73;34.51;100242.87;1675633;84;20154;-77
2021/06/30 12:09:13;;;;;;;;;;;;;;;31.72;34.31;100244.82;1678092;84;20190;-77
2021/06/30 12:11:41;;;;;;;;;;;;;;;31.68;34.28;100236.86;1676332;84;20151;-76
2021/06/30 12:14:14;;;;;;;;;;;;;;;31.69;34.48;100231.57;1661058;85;20173;-78
2021/06/30 12:16:46;;;;;;;;;;;;;;;31.69;34.22;100232.95;1677974;84;20159;-78
2021/06/30 12:19:23;;;;;;;;;;;;;;;31.66;34.02;100228.05;1655096;86;20188;-77
2021/06/30 12:21:49;;;;;;;;;;;;;;;31.65;34.40;100220.84;1676832;84;20193;-78
2021/06/30 12:24:21;;;;;;;;;;;;;;;31.65;34.44;100210.33;1675513;84;20160;-77
2021/06/30 12:27:01;;;;;;;;;;;;;;;31.65;33.98;100210.33;1676214;85;20192;-78
2021/06/30 12:29:28;;;;;;;;;;;;;;;31.67;33.91;100199.79;1675337;84;20185;-78
2021/06/30 12:31:55;;;;;;;;;;;;;;;31.64;33.81;100206.75;1676006;85;20447;-78
2021/06/30 12:34:21;;;;;;;;;;;;;;;31.63;33.87;100198.19;1675918;85;20200;-77
2021/06/30 12:36:47;;;;;;;;;;;;;;;31.62;33.94;100210.40;1675608;85;20192;-78
2021/06/30 12:39:24;;;;;;;;;;;;;;;31.60;34.01;100207.09;1676175;84;20161;-76
2021/06/30 12:42:04;;;;;;;;;;;;;;;31.61;34.24;100215.66;1676210;84;20173;-78
2021/06/30 12:44:32;;;;;;;;;;;;;;;31.60;34.15;100203.51;1675515;84;20512;-78
2021/06/30 12:47:06;;;;;;;;;;;;;;;31.60;34.00;100211.81;1654625;84;20143;-76